Time;durP1;ratioP1;P1;durP2;ratioP2;P2;SDS_P1;SDS_P2;PMS_P1;PMS_P2;Temp;Humidity;BMP_temperature;BMP_pressure;BME280_temperature;BME280_humidity;BME280_pressure;Samples;Min_cycle;Max_cycle;Signal;HPM_P1;HPM_P2
2021/03/09 00:00:45;;;;;;;;;;;;;;;17.19;60.64;101086.59;4999540;28;1309;-59
2021/03/09 00:03:11;;;;;;;;;;;;;;;17.20;60.41;101107.00;4993817;28;1885;-68
2021/03/09 00:05:36;;;;;;;;;;;;;;;17.18;60.31;101108.09;5008036;28;1978;-68
2021/03/09 00:08:02;;;;;;;;;;;;;;;17.19;60.55;101115.13;4996321;28;1215;-59
2021/03/09 00:10:27;;;;;;;;;;;;;;;17.21;61.51;101118.53;4998623;28;1739;-68
2021/03/09 00:12:52;;;;;;;;;;;;;;;17.20;60.97;101132.88;4978228;28;1582;-68
2021/03/09 00:15:18;;;;;;;;;;;;;;;17.21;61.48;101123.88;4989681;28;1446;-68
2021/03/09 00:17:43;;;;;;;;;;;;;;;17.19;60.32;101136.50;4995666;28;1559;-59
2021/03/09 00:20:09;;;;;;;;;;;;;;;17.21;60.85;101137.22;5004728;28;1509;-68
2021/03/09 00:22:34;;;;;;;;;;;;;;;17.17;60.57;101146.44;4988929;28;1091;-58
2021/03/09 00:25:00;;;;;;;;;;;;;;;17.20;61.40;101141.75;4997264;28;1584;-58
2021/03/09 00:27:25;;;;;;;;;;;;;;;17.26;61.83;101138.59;4993256;28;1973;-58
2021/03/09 00:29:50;;;;;;;;;;;;;;;17.23;62.11;101127.28;4995735;28;1431;-58
2021/03/09 00:32:16;;;;;;;;;;;;;;;17.23;61.74;101143.31;4999632;28;1371;-58
2021/03/09 00:34:41;;;;;;;;;;;;;;;17.21;61.33;101150.59;5009416;28;1250;-58
2021/03/09 00:37:06;;;;;;;;;;;;;;;17.19;61.71;101158.75;5000329;28;1797;-61
2021/03/09 00:39:32;;;;;;;;;;;;;;;17.20;61.92;101159.59;4990257;28;1619;-68
2021/03/09 00:41:57;;;;;;;;;;;;;;;17.18;61.41;101167.72;4993239;28;1549;-68
2021/03/09 00:44:23;;;;;;;;;;;;;;;17.15;62.48;101170.63;4995745;28;1459;-58
2021/03/09 00:46:48;;;;;;;;;;;;;;;17.14;61.74;101168.06;5003199;28;1882;-68
2021/03/09 00:49:14;;;;;;;;;;;;;;;17.14;62.65;101165.41;5001146;28;1211;-65
2021/03/09 00:51:39;;;;;;;;;;;;;;;17.12;62.48;101168.19;4996429;28;1454;-58
2021/03/09 00:54:05;;;;;;;;;;;;;;;17.14;61.59;101176.09;5002630;28;1608;-68
2021/03/09 00:56:30;;;;;;;;;;;;;;;17.13;62.37;101177.03;4992017;28;1466;-68
2021/03/09 00:58:55;;;;;;;;;;;;;;;17.14;62.05;101189.47;4992583;28;1423;-67
2021/03/09 01:01:21;;;;;;;;;;;;;;;17.10;61.18;101176.31;5000379;28;1479;-68
2021/03/09 01:03:46;;;;;;;;;;;;;;;17.07;62.19;101165.84;4998617;28;1238;-68
2021/03/09 01:06:11;;;;;;;;;;;;;;;17.07;61.05;101176.53;4992936;28;1965;-65
2021/03/09 01:08:37;;;;;;;;;;;;;;;17.07;62.22;101170.34;4997617;28;1482;-58
2021/03/09 01:11:02;;;;;;;;;;;;;;;17.07;60.76;101170.34;4995518;28;1487;-58
2021/03/09 01:13:28;;;;;;;;;;;;;;;17.08;61.15;101177.41;4976968;28;1421;-58
2021/03/09 01:15:53;;;;;;;;;;;;;;;17.06;62.02;101169.47;5000732;28;1471;-68
2021/03/09 01:18:19;;;;;;;;;;;;;;;17.06;62.04;101174.81;4996790;28;1246;-68
2021/03/09 01:20:44;;;;;;;;;;;;;;;17.08;62.04;101172.91;5001176;28;1405;-58
2021/03/09 01:23:10;;;;;;;;;;;;;;;17.04;61.59;101166.06;5003306;28;1648;-68
2021/03/09 01:25:35;;;;;;;;;;;;;;;17.04;61.01;101167.91;4998374;28;1915;-67
2021/03/09 01:28:00;;;;;;;;;;;;;;;17.02;61.32;101168.00;4992030;28;1281;-58
2021/03/09 01:30:26;;;;;;;;;;;;;;;17.01;62.32;101169.00;4993707;28;1561;-68
2021/03/09 01:32:51;;;;;;;;;;;;;;;17.04;61.66;101168.75;4986051;28;1623;-58
2021/03/09 01:35:17;;;;;;;;;;;;;;;17.03;60.90;101159.03;4992905;28;1379;-58
2021/03/09 01:37:42;;;;;;;;;;;;;;;17.04;60.97;101157.22;4993376;28;1471;-67
2021/03/09 01:40:09;;;;;;;;;;;;;;;17.05;61.06;101156.22;4995674;28;1755;-68
2021/03/09 01:42:34;;;;;;;;;;;;;;;17.04;61.17;101158.06;4994234;28;1628;-67
2021/03/09 01:45:00;;;;;;;;;;;;;;;17.02;61.51;101151.97;4994896;28;1552;-58
2021/03/09 01:47:25;;;;;;;;;;;;;;;17.02;61.79;101162.66;4994197;28;1894;-67
2021/03/09 01:49:51;;;;;;;;;;;;;;;17.03;60.57;101156.38;5002588;28;1249;-58
2021/03/09 01:52:16;;;;;;;;;;;;;;;16.99;60.77;101152.22;4997091;28;1551;-58
2021/03/09 01:54:42;;;;;;;;;;;;;;;17.01;61.24;101171.66;4998116;28;1535;-58
2021/03/09 01:57:07;;;;;;;;;;;;;;;17.01;60.68;101158.31;4969451;28;1444;-68
2021/03/09 01:59:33;;;;;;;;;;;;;;;16.97;61.29;101167.50;4997395;28;1526;-58
2021/03/09 02:01:59;;;;;;;;;;;;;;;16.97;61.69;101169.31;5004382;28;1573;-59
2021/03/09 02:04:24;;;;;;;;;;;;;;;16.94;61.10;101166.88;5000279;28;1223;-58
2021/03/09 02:06:50;;;;;;;;;;;;;;;16.97;61.70;101185.34;4992281;28;1906;-68
2021/03/09 02:09:16;;;;;;;;;;;;;;;16.93;60.99;101173.16;4990687;28;1471;-58
2021/03/09 02:11:51;;;;;;;;;;;;;;;16.96;62.05;101186.31;4982024;28;1517;-58
2021/03/09 02:14:17;;;;;;;;;;;;;;;16.92;61.08;101187.50;4994039;28;1510;-68
2021/03/09 02:16:54;;;;;;;;;;;;;;;16.92;61.15;101188.34;4995948;28;1211;-68
2021/03/09 02:19:45;;;;;;;;;;;;;;;16.89;61.79;101194.78;4998660;28;1540;-67
2021/03/09 02:22:25;;;;;;;;;;;;;;;16.85;62.07;101192.41;4994541;28;1740;-68
2021/03/09 02:24:59;;;;;;;;;;;;;;;16.88;61.45;101192.22;4995186;28;1751;-58
2021/03/09 02:27:25;;;;;;;;;;;;;;;16.91;60.77;101208.03;4986172;28;1971;-68
2021/03/09 02:30:05;;;;;;;;;;;;;;;16.92;60.44;101209.72;4997214;28;1549;-67
2021/03/09 02:32:34;;;;;;;;;;;;;;;16.93;60.63;101218.56;4998388;28;1395;-58
2021/03/09 02:35:00;;;;;;;;;;;;;;;16.95;61.40;101220.19;5007255;28;1293;-68
2021/03/09 02:37:30;;;;;;;;;;;;;;;16.92;60.79;101216.88;4992739;28;1541;-68
2021/03/09 02:39:57;;;;;;;;;;;;;;;16.92;61.28;101233.75;4994928;28;1509;-58
2021/03/09 02:42:26;;;;;;;;;;;;;;;16.86;61.76;101231.53;4994299;28;1439;-68
2021/03/09 02:44:52;;;;;;;;;;;;;;;16.88;61.55;101221.59;4992936;28;1490;-68
2021/03/09 02:47:18;;;;;;;;;;;;;;;16.86;61.35;101236.88;4992742;28;1879;-58
2021/03/09 02:49:44;;;;;;;;;;;;;;;16.84;60.98;101236.13;5004151;28;1547;-68
2021/03/09 02:52:13;;;;;;;;;;;;;;;16.83;60.85;101243.31;5001574;28;1719;-69
2021/03/09 02:54:40;;;;;;;;;;;;;;;16.83;60.37;101248.63;4996826;28;1544;-58
2021/03/09 02:57:06;;;;;;;;;;;;;;;16.82;61.06;101256.75;4969377;28;1535;-58
2021/03/09 02:59:32;;;;;;;;;;;;;;;16.77;61.79;101254.38;4991912;28;1555;-58
2021/03/09 03:11:54;;;;;;;;;;;;;;;16.84;61.18;101262.84;5016553;22;3436;-66
2021/03/09 03:14:21;;;;;;;;;;;;;;;16.87;61.01;101279.50;5011814;28;1551;-67
2021/03/09 03:16:46;;;;;;;;;;;;;;;16.86;60.89;101267.09;5012721;28;1437;-57
2021/03/09 03:19:13;;;;;;;;;;;;;;;16.82;61.16;101270.13;5013521;28;1389;-57
2021/03/09 03:21:39;;;;;;;;;;;;;;;16.82;61.44;101270.97;5011235;28;1536;-58
2021/03/09 03:24:06;;;;;;;;;;;;;;;16.82;60.58;101272.78;5008860;28;1422;-57
2021/03/09 03:26:43;;;;;;;;;;;;;;;16.79;61.22;101272.97;5011987;28;1983;-57
2021/03/09 03:29:10;;;;;;;;;;;;;;;16.79;61.66;101286.31;5012617;28;1516;-58
2021/03/09 03:31:36;;;;;;;;;;;;;;;16.80;60.66;101285.34;5011177;28;1484;-68
2021/03/09 03:34:02;;;;;;;;;;;;;;;16.77;60.44;101288.22;5008330;28;1239;-68
2021/03/09 03:36:28;;;;;;;;;;;;;;;16.77;60.90;101298.91;5003636;28;1539;-67
2021/03/09 03:38:54;;;;;;;;;;;;;;;16.73;60.64;101297.44;5012282;28;1469;-68
2021/03/09 03:41:20;;;;;;;;;;;;;;;16.73;61.30;101311.63;4994566;28;1428;-57
2021/03/09 03:43:45;;;;;;;;;;;;;;;16.75;61.25;101304.41;5011659;28;1492;-58
2021/03/09 03:46:11;;;;;;;;;;;;;;;16.78;60.75;101317.50;5011900;28;1961;-58
2021/03/09 03:48:37;;;;;;;;;;;;;;;16.81;60.24;101309.34;4995519;28;1325;-67
2021/03/09 03:51:05;;;;;;;;;;;;;;;16.78;60.75;101316.66;4994910;28;1699;-66
2021/03/09 03:53:49;;;;;;;;;;;;;;;16.77;61.53;101328.28;5011564;28;1473;-67
2021/03/09 03:56:20;;;;;;;;;;;;;;;16.74;61.33;101325.84;5011825;28;1461;-57
2021/03/09 03:58:53;;;;;;;;;;;;;;;16.69;60.23;101327.03;5011816;28;1477;-58
2021/03/09 04:01:20;;;;;;;;;;;;;;;16.74;61.60;101341.88;5011981;28;1469;-68
2021/03/09 04:03:47;;;;;;;;;;;;;;;16.71;61.31;101334.91;5012118;28;1347;-67
2021/03/09 04:06:14;;;;;;;;;;;;;;;16.69;61.29;101348.41;5012021;28;1910;-58
2021/03/09 04:08:39;;;;;;;;;;;;;;;16.69;60.30;101332.38;5008961;28;1406;-68
2021/03/09 04:11:05;;;;;;;;;;;;;;;16.69;60.89;101353.75;5011772;28;1531;-67
2021/03/09 04:13:32;;;;;;;;;;;;;;;16.70;61.10;101344.75;5009053;28;1457;-68
2021/03/09 04:15:58;;;;;;;;;;;;;;;16.81;61.99;101361.84;5001909;28;1540;-58
2021/03/09 04:18:25;;;;;;;;;;;;;;;16.82;62.63;101355.59;4997404;28;1191;-57
2021/03/09 04:20:52;;;;;;;;;;;;;;;16.87;63.11;101350.75;5002500;28;1613;-58
2021/03/09 04:23:18;;;;;;;;;;;;;;;16.87;63.64;101348.09;5008477;28;1483;-67
2021/03/09 04:25:44;;;;;;;;;;;;;;;16.89;63.72;101364.88;5002789;28;1910;-57
2021/03/09 04:28:10;;;;;;;;;;;;;;;16.92;63.51;101359.31;5010317;28;1558;-67
2021/03/09 04:30:35;;;;;;;;;;;;;;;16.91;63.44;101365.63;5011625;28;1202;-59
2021/03/09 04:33:01;;;;;;;;;;;;;;;16.86;62.59;101359.75;5005623;28;1753;-62
2021/03/09 04:35:27;;;;;;;;;;;;;;;16.88;62.59;101349.81;5009577;28;1488;-70
2021/03/09 04:37:53;;;;;;;;;;;;;;;16.84;62.37;101372.34;5017195;28;1505;-58
2021/03/09 04:40:19;;;;;;;;;;;;;;;16.82;61.99;101364.44;5012153;28;1191;-69
2021/03/09 04:42:45;;;;;;;;;;;;;;;16.78;62.15;101354.06;5015876;28;1686;-58
2021/03/09 04:45:10;;;;;;;;;;;;;;;16.80;63.07;101362.81;5005848;28;1469;-64
2021/03/09 04:47:36;;;;;;;;;;;;;;;16.83;63.20;101365.28;5007532;28;1894;-63
2021/03/09 04:50:01;;;;;;;;;;;;;;;16.82;62.04;101358.25;5008334;28;1198;-63
2021/03/09 04:52:27;;;;;;;;;;;;;;;16.82;62.75;101353.75;5009034;28;1461;-62
2021/03/09 04:54:53;;;;;;;;;;;;;;;16.82;63.30;101352.91;5007353;28;1500;-65
2021/03/09 04:57:19;;;;;;;;;;;;;;;16.81;62.20;101354.75;4985697;28;1466;-68
2021/03/09 04:59:44;;;;;;;;;;;;;;;16.81;62.16;101368.09;5003922;28;1481;-58
2021/03/09 05:02:10;;;;;;;;;;;;;;;16.84;62.26;101375.03;5005526;28;1668;-57
2021/03/09 05:04:35;;;;;;;;;;;;;;;16.86;61.56;101371.28;5010904;28;1218;-60
2021/03/09 05:07:01;;;;;;;;;;;;;;;16.92;63.12;101370.00;5010191;28;1963;-56
2021/03/09 05:09:26;;;;;;;;;;;;;;;16.89;62.56;101373.75;5010661;28;1422;-57
2021/03/09 05:11:52;;;;;;;;;;;;;;;16.90;62.77;101377.28;5009633;28;1414;-58
2021/03/09 05:14:17;;;;;;;;;;;;;;;16.93;61.91;101382.41;5009605;28;1434;-55
2021/03/09 05:16:42;;;;;;;;;;;;;;;16.90;63.34;101377.28;5012560;28;1498;-57
2021/03/09 05:19:08;;;;;;;;;;;;;;;16.88;62.14;101380.03;5014903;28;1265;-57
2021/03/09 05:21:33;;;;;;;;;;;;;;;16.86;62.74;101376.63;5013388;28;1465;-56
2021/03/09 05:23:59;;;;;;;;;;;;;;;17.04;61.97;101379.81;5011598;28;1497;-62
2021/03/09 05:26:24;;;;;;;;;;;;;;;17.62;60.26;101380.16;5011278;28;1974;-57
2021/03/09 05:28:49;;;;;;;;;;;;;;;17.63;59.87;101373.00;5012749;28;1383;-58
2021/03/09 05:31:15;;;;;;;;;;;;;;;17.36;61.02;101381.19;5011238;28;1564;-59
2021/03/09 05:33:40;;;;;;;;;;;;;;;17.17;60.77;101384.31;5011494;28;1361;-60
2021/03/09 05:36:06;;;;;;;;;;;;;;;17.37;61.95;101383.75;5011114;28;1457;-63
2021/03/09 05:38:31;;;;;;;;;;;;;;;17.66;60.89;101397.69;5011927;28;1536;-57
2021/03/09 05:40:58;;;;;;;;;;;;;;;17.87;60.15;101406.00;5012847;28;1398;-58
2021/03/09 05:43:24;;;;;;;;;;;;;;;17.97;59.86;101397.31;5012443;28;1449;-57
2021/03/09 05:45:49;;;;;;;;;;;;;;;18.06;59.76;101394.81;5013053;28;1945;-59
2021/03/09 05:48:15;;;;;;;;;;;;;;;18.15;59.40;101398.63;5012210;28;1199;-56
2021/03/09 05:50:40;;;;;;;;;;;;;;;18.23;58.82;101422.13;5012841;28;1457;-55
2021/03/09 05:53:05;;;;;;;;;;;;;;;18.36;59.23;101409.53;4993915;28;1589;-60
2021/03/09 05:55:31;;;;;;;;;;;;;;;18.64;58.36;101412.78;5013634;28;1469;-56
2021/03/09 05:57:56;;;;;;;;;;;;;;;18.73;58.29;101413.94;5014132;28;1516;-59
2021/03/09 06:00:24;;;;;;;;;;;;;;;18.92;57.62;101408.88;5014633;28;943;-62
2021/03/09 06:02:50;;;;;;;;;;;;;;;19.04;57.54;101413.28;4996856;28;1874;-60
2021/03/09 06:05:15;;;;;;;;;;;;;;;19.10;57.71;101416.44;5014191;28;1501;-59
2021/03/09 06:07:41;;;;;;;;;;;;;;;19.14;57.49;101418.78;5014202;28;1906;-59
2021/03/09 06:10:18;;;;;;;;;;;;;;;19.16;57.71;101422.19;5012768;28;1591;-61
2021/03/09 06:12:44;;;;;;;;;;;;;;;19.21;57.91;101421.81;5011201;28;1437;-61
2021/03/09 06:15:09;;;;;;;;;;;;;;;19.23;57.74;101438.66;5010085;28;1310;-60
2021/03/09 06:17:37;;;;;;;;;;;;;;;19.34;57.65;101435.97;5012775;28;1481;-59
2021/03/09 06:20:04;;;;;;;;;;;;;;;19.34;58.01;101440.47;5014048;28;1306;-59
2021/03/09 06:22:39;;;;;;;;;;;;;;;19.39;58.01;101438.28;4993938;28;1491;-58
2021/03/09 06:25:05;;;;;;;;;;;;;;;19.44;58.04;101436.09;5012841;28;1682;-59
2021/03/09 06:27:31;;;;;;;;;;;;;;;19.39;57.98;101439.13;5004571;28;1906;-60
2021/03/09 06:29:57;;;;;;;;;;;;;;;19.44;58.12;101436.94;5003676;28;1446;-66
2021/03/09 06:32:23;;;;;;;;;;;;;;;19.53;57.69;101423.78;4996298;28;1490;-64
2021/03/09 06:34:49;;;;;;;;;;;;;;;19.57;57.73;101441.34;5013001;28;1160;-64
2021/03/09 06:37:21;;;;;;;;;;;;;;;19.47;58.26;101458.16;5007882;28;1489;-59
2021/03/09 06:40:03;;;;;;;;;;;;;;;19.46;58.10;101435.00;5007295;28;1604;-64
2021/03/09 06:42:38;;;;;;;;;;;;;;;19.41;58.72;101455.09;4987650;28;1754;-65
2021/03/09 06:45:08;;;;;;;;;;;;;;;19.40;58.22;101461.47;5007613;28;1753;-64
2021/03/09 06:47:38;;;;;;;;;;;;;;;19.36;58.33;101455.47;5012487;28;1953;-59
2021/03/09 06:50:14;;;;;;;;;;;;;;;19.30;58.09;101455.97;5011688;28;1469;-64
2021/03/09 06:52:40;;;;;;;;;;;;;;;19.24;58.71;101451.94;5011635;28;1267;-63
2021/03/09 06:55:07;;;;;;;;;;;;;;;19.22;59.02;101450.34;5006990;28;1532;-62
2021/03/09 06:57:33;;;;;;;;;;;;;;;19.23;58.90;101460.09;5004638;28;1744;-65
2021/03/09 06:59:58;;;;;;;;;;;;;;;19.16;58.80;101464.22;4996880;28;1480;-64
2021/03/09 07:02:24;;;;;;;;;;;;;;;19.12;58.63;101463.63;5007409;28;1548;-59
2021/03/09 07:05:00;;;;;;;;;;;;;;;19.11;59.19;101461.06;5011591;28;1376;-61
2021/03/09 07:07:30;;;;;;;;;;;;;;;19.11;59.08;101455.69;4988761;28;1898;-64
2021/03/09 07:10:00;;;;;;;;;;;;;;;19.13;59.51;101464.47;5009847;28;1429;-64
2021/03/09 07:12:26;;;;;;;;;;;;;;;19.08;59.22;101457.66;4991015;28;632194;-57
2021/03/09 07:14:52;;;;;;;;;;;;;;;19.07;59.36;101461.28;5012888;28;1413;-57
2021/03/09 07:17:22;;;;;;;;;;;;;;;19.04;59.29;101458.84;5012770;28;1502;-64
2021/03/09 07:19:48;;;;;;;;;;;;;;;19.02;59.48;101457.25;5013400;28;1374;-64
2021/03/09 07:22:14;;;;;;;;;;;;;;;19.02;59.39;101457.25;5011692;28;1527;-57
2021/03/09 07:24:59;;;;;;;;;;;;;;;19.02;59.84;101463.47;4989374;28;1383;-59
2021/03/09 07:27:35;;;;;;;;;;;;;;;19.10;59.43;101465.56;5011373;28;1910;-59
2021/03/09 07:30:03;;;;;;;;;;;;;;;19.08;59.36;101462.16;4981969;28;1543;-59
2021/03/09 07:32:29;;;;;;;;;;;;;;;19.05;59.73;101457.03;4991989;28;1434;-60
2021/03/09 07:34:55;;;;;;;;;;;;;;;19.07;59.84;101461.28;5008407;28;1393;-60
2021/03/09 07:37:21;;;;;;;;;;;;;;;19.05;60.18;101444.47;5011461;28;1492;-59
2021/03/09 07:39:46;;;;;;;;;;;;;;;19.03;60.78;101449.09;5011714;28;1508;-60
2021/03/09 07:42:12;;;;;;;;;;;;;;;19.02;60.74;101436.69;5012408;28;1406;-60
2021/03/09 07:44:38;;;;;;;;;;;;;;;19.00;61.17;101438.63;5010612;28;1469;-61
2021/03/09 07:47:06;;;;;;;;;;;;;;;19.00;61.58;101437.75;4989644;28;1882;-62
2021/03/09 07:49:32;;;;;;;;;;;;;;;19.00;61.51;101435.94;5006902;28;817;-60
2021/03/09 07:52:10;;;;;;;;;;;;;;;18.96;61.65;101437.16;5012338;28;1550;-62
2021/03/09 07:54:36;;;;;;;;;;;;;;;18.93;61.97;101437.38;4994773;28;1582;-61
2021/03/09 07:57:18;;;;;;;;;;;;;;;18.95;62.03;101440.78;5011560;28;1639;-60
2021/03/09 07:59:59;;;;;;;;;;;;;;;18.96;62.04;101444.31;5010835;28;1463;-60
2021/03/09 08:02:41;;;;;;;;;;;;;;;19.05;62.06;101439.09;5010932;28;1539;-60
2021/03/09 08:05:08;;;;;;;;;;;;;;;19.12;62.02;101441.31;5008011;28;1707;-59
2021/03/09 08:07:48;;;;;;;;;;;;;;;19.21;61.92;101443.28;5003717;28;1890;-60
2021/03/09 08:10:25;;;;;;;;;;;;;;;19.26;61.94;101443.78;5010734;28;1551;-61
2021/03/09 08:12:50;;;;;;;;;;;;;;;19.24;61.93;101445.72;5008113;28;1490;-60
2021/03/09 08:15:19;;;;;;;;;;;;;;;19.26;61.91;101447.31;5008213;28;1698;-60
2021/03/09 08:17:45;;;;;;;;;;;;;;;19.28;62.20;101447.19;5012333;28;1697;-60
2021/03/09 08:20:30;;;;;;;;;;;;;;;19.29;62.25;101451.56;5012495;28;1520;-60
2021/03/09 08:22:55;;;;;;;;;;;;;;;19.25;62.43;101450.09;5002544;28;1730;-59
2021/03/09 08:25:36;;;;;;;;;;;;;;;19.31;61.89;101425.47;5007190;28;1333;-58
2021/03/09 08:28:21;;;;;;;;;;;;;;;19.34;61.92;101433.28;5005426;28;1968;-63
2021/03/09 08:30:47;;;;;;;;;;;;;;;19.33;61.87;101428.03;5003442;28;1386;-61
2021/03/09 08:33:22;;;;;;;;;;;;;;;19.34;62.01;101433.28;5011635;28;1486;-61
2021/03/09 08:35:47;;;;;;;;;;;;;;;19.38;61.85;101423.19;4991405;28;1559;-65
2021/03/09 08:38:13;;;;;;;;;;;;;;;19.33;61.85;101418.16;5011162;28;1586;-67
2021/03/09 08:40:59;;;;;;;;;;;;;;;19.34;61.76;101427.06;4988267;28;1505;-60
2021/03/09 08:43:24;;;;;;;;;;;;;;;19.29;62.39;101438.16;4996191;28;1617;-60
2021/03/09 08:45:52;;;;;;;;;;;;;;;19.25;62.36;101448.25;5002543;28;1504;-63
2021/03/09 08:48:38;;;;;;;;;;;;;;;19.30;62.01;101434.53;5003905;28;1258;-63
2021/03/09 08:51:03;;;;;;;;;;;;;;;19.22;62.25;101437.78;5000920;28;1465;-63
2021/03/09 08:53:32;;;;;;;;;;;;;;;19.19;62.37;101426.47;5008469;28;1446;-60
2021/03/09 08:56:00;;;;;;;;;;;;;;;19.18;62.51;101427.41;4988252;28;1395;-60
2021/03/09 08:58:26;;;;;;;;;;;;;;;19.18;62.37;101430.09;5006477;28;1489;-64
2021/03/09 09:00:52;;;;;;;;;;;;;;;19.18;62.49;101443.50;4991618;28;1234;-65
2021/03/09 09:03:33;;;;;;;;;;;;;;;19.18;62.19;101433.66;5005176;28;1398;-59
2021/03/09 09:05:59;;;;;;;;;;;;;;;19.13;62.30;101432.31;5004648;28;1963;-63
2021/03/09 09:08:24;;;;;;;;;;;;;;;19.15;62.30;101443.75;4988078;28;1496;-62
2021/03/09 09:10:50;;;;;;;;;;;;;;;19.12;62.08;101446.66;5000080;28;1472;-63
2021/03/09 09:13:15;;;;;;;;;;;;;;;19.14;62.02;101439.34;5010690;28;1461;-62
2021/03/09 09:15:40;;;;;;;;;;;;;;;19.17;62.00;101439.13;5002225;28;1187;-61
2021/03/09 09:18:07;;;;;;;;;;;;;;;19.12;62.21;101430.56;5001432;28;1687;-57
2021/03/09 09:20:35;;;;;;;;;;;;;;;19.11;62.27;101431.56;5006166;28;1502;-59
2021/03/09 09:23:11;;;;;;;;;;;;;;;19.10;62.33;101440.56;5012369;28;1472;-61
2021/03/09 09:25:38;;;;;;;;;;;;;;;19.12;62.00;101428.78;5011759;28;1466;-59
2021/03/09 09:28:04;;;;;;;;;;;;;;;19.09;62.36;101437.03;5006612;28;1910;-60
2021/03/09 09:30:42;;;;;;;;;;;;;;;19.05;62.19;101436.41;5006758;28;1730;-60
2021/03/09 09:33:09;;;;;;;;;;;;;;;18.71;62.35;101383.72;5014038;28;1596;-60
2021/03/09 09:35:34;;;;;;;;;;;;;;;19.03;62.52;101435.69;5008125;28;1555;-57
2021/03/09 09:38:01;;;;;;;;;;;;;;;19.03;62.49;101443.72;5005790;28;1501;-60
2021/03/09 09:40:39;;;;;;;;;;;;;;;19.05;62.30;101447.16;5012930;28;1366;-60
2021/03/09 09:46:27;;;;;;;;;;;;;;;19.04;62.01;101429.38;4928980;29;1945;-63
2021/03/09 09:48:52;;;;;;;;;;;;;;;19.05;61.75;101431.06;4990053;28;1606;-60
2021/03/09 09:51:19;;;;;;;;;;;;;;;19.03;61.89;101433.00;5005524;28;1408;-60
2021/03/09 09:53:49;;;;;;;;;;;;;;;19.03;62.35;101437.53;5011883;28;1449;-60
2021/03/09 09:56:18;;;;;;;;;;;;;;;19.02;62.11;101431.31;5011502;28;1485;-61
2021/03/09 09:58:44;;;;;;;;;;;;;;;19.03;62.30;101434.84;5010400;28;1457;-71
2021/03/09 10:01:10;;;;;;;;;;;;;;;19.02;62.01;101435.81;4992120;28;1564;-59
2021/03/09 10:03:51;;;;;;;;;;;;;;;18.99;62.33;101428.88;5012760;28;1385;-59
2021/03/09 10:06:17;;;;;;;;;;;;;;;18.96;62.67;101442.50;5004609;28;1918;-67
2021/03/09 10:08:43;;;;;;;;;;;;;;;18.94;62.51;101425.69;5007225;28;1532;-59
2021/03/09 10:11:09;;;;;;;;;;;;;;;18.92;62.63;101430.31;5012474;28;1619;-66
2021/03/09 10:13:35;;;;;;;;;;;;;;;18.94;62.66;101422.16;5005079;28;1658;-60
2021/03/09 10:16:00;;;;;;;;;;;;;;;18.94;62.79;101427.50;5006960;28;1537;-59
2021/03/09 10:18:30;;;;;;;;;;;;;;;18.87;62.63;101421.78;4993266;28;1371;-65
2021/03/09 10:21:00;;;;;;;;;;;;;;;18.89;62.33;101414.47;5012559;28;1433;-65
2021/03/09 10:23:25;;;;;;;;;;;;;;;18.90;62.51;101420.69;5013245;28;1582;-66
2021/03/09 10:25:58;;;;;;;;;;;;;;;18.88;62.70;101423.50;5013336;28;1402;-66
2021/03/09 10:28:24;;;;;;;;;;;;;;;18.91;62.49;101423.25;5012075;28;1363;-59
2021/03/09 10:30:50;;;;;;;;;;;;;;;18.92;62.64;101413.38;4994809;28;1269;-66
2021/03/09 10:33:15;;;;;;;;;;;;;;;18.96;62.34;101415.72;5007993;28;2053;-67
2021/03/09 10:35:59;;;;;;;;;;;;;;;19.07;62.00;101418.38;5013542;28;1678;-60
2021/03/09 10:38:24;;;;;;;;;;;;;;;19.07;62.09;101423.75;5011508;28;1407;-60
2021/03/09 10:40:50;;;;;;;;;;;;;;;19.07;62.24;101429.13;5011644;28;1809;-60
2021/03/09 10:43:16;;;;;;;;;;;;;;;19.08;62.27;101412.06;5009642;28;1476;-60
2021/03/09 10:45:41;;;;;;;;;;;;;;;19.07;62.17;101404.13;4996787;28;1166;-67
2021/03/09 10:48:07;;;;;;;;;;;;;;;19.14;61.57;101400.00;5003518;28;1882;-64
2021/03/09 10:50:44;;;;;;;;;;;;;;;19.14;61.87;101401.81;5001726;28;1493;-60
2021/03/09 10:53:09;;;;;;;;;;;;;;;19.14;61.96;101401.81;5007932;28;1517;-61
2021/03/09 10:55:35;;;;;;;;;;;;;;;19.08;62.07;101387.94;5007890;28;1575;-61
2021/03/09 10:58:00;;;;;;;;;;;;;;;19.03;62.17;101390.13;5010364;28;1597;-61
2021/03/09 11:00:27;;;;;;;;;;;;;;;18.98;62.30;101378.94;5011640;28;1737;-61
2021/03/09 11:02:52;;;;;;;;;;;;;;;18.92;62.50;101382.09;5012596;28;1721;-63
2021/03/09 11:05:18;;;;;;;;;;;;;;;18.94;61.83;101380.13;5009325;28;1499;-63
2021/03/09 11:07:43;;;;;;;;;;;;;;;18.94;62.29;101379.25;5011614;28;1906;-61
2021/03/09 11:10:13;;;;;;;;;;;;;;;18.88;62.18;101372.59;5003867;28;1605;-62
2021/03/09 11:12:39;;;;;;;;;;;;;;;18.94;62.55;101381.94;5012607;28;1603;-57
2021/03/09 11:15:05;;;;;;;;;;;;;;;18.88;62.95;101381.47;5011000;28;1473;-63
2021/03/09 11:17:31;;;;;;;;;;;;;;;18.87;62.88;101376.22;5007553;28;1627;-57
2021/03/09 11:19:56;;;;;;;;;;;;;;;18.85;62.91;101387.06;5013656;28;1583;-57
2021/03/09 11:22:21;;;;;;;;;;;;;;;18.81;63.35;101380.22;5004941;28;1615;-57
2021/03/09 11:24:47;;;;;;;;;;;;;;;18.81;63.12;101384.75;5012235;28;1525;-57
2021/03/09 11:27:12;;;;;;;;;;;;;;;18.81;62.79;101368.66;5012974;28;1918;-57
2021/03/09 11:29:38;;;;;;;;;;;;;;;18.81;63.42;101357.94;5012756;28;1448;-57
2021/03/09 11:32:04;;;;;;;;;;;;;;;18.83;62.90;101358.69;5012585;28;1411;-57
2021/03/09 11:34:30;;;;;;;;;;;;;;;18.79;63.01;101349.16;5013633;28;711;-57
2021/03/09 11:36:55;;;;;;;;;;;;;;;18.80;62.62;101346.38;5012604;28;1678;-57
2021/03/09 11:39:20;;;;;;;;;;;;;;;18.81;62.82;101349.91;5012648;28;1485;-63
2021/03/09 11:41:48;;;;;;;;;;;;;;;18.77;62.51;101335.84;5012560;28;1602;-57
2021/03/09 11:44:13;;;;;;;;;;;;;;;18.78;62.60;101334.03;5012579;28;1363;-57
2021/03/09 11:46:38;;;;;;;;;;;;;;;18.80;62.39;101334.78;5012608;28;1886;-57
2021/03/09 11:49:04;;;;;;;;;;;;;;;18.84;62.15;101325.53;5013588;28;775;-57
2021/03/09 11:51:29;;;;;;;;;;;;;;;18.79;62.43;101327.72;5012696;28;1724;-57
2021/03/09 11:53:55;;;;;;;;;;;;;;;18.84;62.62;101331.78;5012479;28;1531;-57
2021/03/09 11:56:20;;;;;;;;;;;;;;;18.85;62.26;101327.25;5012433;28;1602;-57
2021/03/09 11:58:47;;;;;;;;;;;;;;;18.87;62.31;101319.94;5012338;28;1507;-57
2021/03/09 12:01:13;;;;;;;;;;;;;;;18.92;62.18;101314.22;5012563;28;1604;-63
2021/03/09 12:03:38;;;;;;;;;;;;;;;18.93;62.09;101316.78;5013474;28;774;-63
2021/03/09 12:06:04;;;;;;;;;;;;;;;18.96;62.03;101304.94;5012942;28;1964;-63
2021/03/09 12:08:29;;;;;;;;;;;;;;;18.96;62.02;101296.91;5012195;28;1534;-57
2021/03/09 12:10:54;;;;;;;;;;;;;;;18.96;62.05;101295.09;5012759;28;1469;-63
2021/03/09 12:13:20;;;;;;;;;;;;;;;19.01;61.75;101306.28;4994798;28;1461;-62
2021/03/09 12:15:45;;;;;;;;;;;;;;;18.99;61.77;101305.56;5013418;28;1425;-63
2021/03/09 12:18:10;;;;;;;;;;;;;;;19.02;61.93;101294.63;5013500;28;1690;-57
2021/03/09 12:20:36;;;;;;;;;;;;;;;18.98;61.80;101293.16;5013419;28;1454;-57
2021/03/09 12:23:01;;;;;;;;;;;;;;;18.99;61.82;101283.28;5013244;28;1497;-62
2021/03/09 12:25:27;;;;;;;;;;;;;;;19.00;61.79;101301.94;5014247;28;808;-57
2021/03/09 12:27:52;;;;;;;;;;;;;;;18.98;61.79;101281.56;5017319;28;1979;-57
2021/03/09 12:30:18;;;;;;;;;;;;;;;18.96;61.63;101292.44;5017071;28;1752;-57
2021/03/09 12:32:43;;;;;;;;;;;;;;;18.96;61.74;101281.72;5017316;28;1493;-57
2021/03/09 12:35:09;;;;;;;;;;;;;;;18.96;61.81;101286.19;5017974;28;833;-57
2021/03/09 12:37:35;;;;;;;;;;;;;;;18.91;62.03;101269.66;5017286;28;1425;-57
2021/03/09 12:40:00;;;;;;;;;;;;;;;18.90;61.70;101287.56;5017126;28;1509;-63
2021/03/09 12:42:26;;;;;;;;;;;;;;;18.89;61.97;101280.47;5016863;28;1737;-63
2021/03/09 12:44:51;;;;;;;;;;;;;;;18.92;61.85;101277.56;5017081;28;1453;-57
2021/03/09 12:47:17;;;;;;;;;;;;;;;18.90;61.87;101282.19;5016850;28;1902;-57
2021/03/09 12:49:42;;;;;;;;;;;;;;;18.91;61.75;101277.69;5017886;28;734;-57
2021/03/09 12:52:08;;;;;;;;;;;;;;;18.91;61.99;101278.53;5016919;28;1689;-63
2021/03/09 12:54:33;;;;;;;;;;;;;;;18.89;61.86;101264.41;5016617;28;1531;-58
2021/03/09 12:56:58;;;;;;;;;;;;;;;18.91;61.93;101283.88;5016993;28;1567;-57
2021/03/09 12:59:24;;;;;;;;;;;;;;;18.87;62.07;101271.72;5017166;28;1425;-58
2021/03/09 13:01:49;;;;;;;;;;;;;;;18.87;61.61;101271.72;5016895;28;1482;-57